sensor_id;sensor_type;location;lat;lon;timestamp;P1;durP1;ratioP1;P2;durP2;ratioP2
16624;SDS011;8426;48.496;9.098;2023-07-22T00:01:57;1.80;;;1.35;;
16624;SDS011;8426;48.496;9.098;2023-07-22T05:40:32;2.30;;;1.70;;
16624;SDS011;8426;48.496;9.098;2023-07-22T05:45:39;2.30;;;1.63;;
16624;SDS011;8426;48.496;9.098;2023-07-22T05:50:43;2.50;;;1.60;;
16624;SDS011;8426;48.496;9.098;2023-07-22T05:55:48;4.65;;;2.20;;
16624;SDS011;8426;48.496;9.098;2023-07-22T06:00:53;4.88;;;1.90;;
16624;SDS011;8426;48.496;9.098;2023-07-22T06:05:56;4.38;;;1.58;;
16624;SDS011;8426;48.496;9.098;2023-07-22T06:11:01;4.40;;;1.88;;
16624;SDS011;8426;48.496;9.098;2023-07-22T06:16:08;3.40;;;2.08;;
16624;SDS011;8426;48.496;9.098;2023-07-22T06:21:12;2.80;;;1.77;;
16624;SDS011;8426;48.496;9.098;2023-07-22T06:26:17;3.05;;;1.90;;
16624;SDS011;8426;48.496;9.098;2023-07-22T06:31:23;3.45;;;1.60;;
16624;SDS011;8426;48.496;9.098;2023-07-22T06:36:32;3.35;;;1.42;;
16624;SDS011;8426;48.496;9.098;2023-07-22T06:41:37;2.63;;;1.67;;
16624;SDS011;8426;48.496;9.098;2023-07-22T06:46:40;2.70;;;1.50;;
16624;SDS011;8426;48.496;9.098;2023-07-22T06:51:45;4.43;;;1.60;;
16624;SDS011;8426;48.496;9.098;2023-07-22T06:56:50;2.00;;;1.25;;
16624;SDS011;8426;48.496;9.098;2023-07-22T07:01:54;1.50;;;1.25;;
16624;SDS011;8426;48.496;9.098;2023-07-22T07:06:57;5.13;;;1.17;;
16624;SDS011;8426;48.496;9.098;2023-07-22T07:12:03;2.15;;;1.30;;
16624;SDS011;8426;48.496;9.098;2023-07-22T07:17:11;2.10;;;1.10;;
16624;SDS011;8426;48.496;9.098;2023-07-22T07:22:14;3.38;;;1.30;;
16624;SDS011;8426;48.496;9.098;2023-07-22T07:27:25;2.38;;;1.25;;
16624;SDS011;8426;48.496;9.098;2023-07-22T07:32:28;1.98;;;1.30;;
16624;SDS011;8426;48.496;9.098;2023-07-22T07:37:31;2.45;;;1.30;;
16624;SDS011;8426;48.496;9.098;2023-07-22T07:42:36;2.80;;;1.35;;
16624;SDS011;8426;48.496;9.098;2023-07-22T07:47:42;2.03;;;1.10;;
16624;SDS011;8426;48.496;9.098;2023-07-22T07:52:45;1.55;;;1.17;;
16624;SDS011;8426;48.496;9.098;2023-07-22T07:57:51;2.85;;;1.20;;
16624;SDS011;8426;48.496;9.098;2023-07-22T08:02:57;1.40;;;1.10;;
16624;SDS011;8426;48.496;9.098;2023-07-22T08:08:00;4.43;;;1.20;;
16624;SDS011;8426;48.496;9.098;2023-07-22T08:13:06;7.13;;;1.10;;
16624;SDS011;8426;48.496;9.098;2023-07-22T08:18:11;1.95;;;1.10;;
16624;SDS011;8426;48.496;9.098;2023-07-22T08:23:14;5.25;;;1.05;;
16624;SDS011;8426;48.496;9.098;2023-07-22T08:28:22;1.95;;;1.27;;
16624;SDS011;8426;48.496;9.098;2023-07-22T08:33:35;1.92;;;0.90;;
16624;SDS011;8426;48.496;9.098;2023-07-22T08:38:43;2.80;;;1.08;;
16624;SDS011;8426;48.496;9.098;2023-07-22T08:43:49;2.28;;;1.00;;
16624;SDS011;8426;48.496;9.098;2023-07-22T08:48:54;2.00;;;1.15;;
16624;SDS011;8426;48.496;9.098;2023-07-22T08:53:58;2.60;;;0.90;;
16624;SDS011;8426;48.496;9.098;2023-07-22T08:59:13;3.10;;;0.90;;
16624;SDS011;8426;48.496;9.098;2023-07-22T09:04:17;1.70;;;0.90;;
16624;SDS011;8426;48.496;9.098;2023-07-22T09:09:21;4.00;;;0.90;;
16624;SDS011;8426;48.496;9.098;2023-07-22T09:14:26;1.70;;;0.85;;
16624;SDS011;8426;48.496;9.098;2023-07-22T09:19:37;9.45;;;1.25;;
16624;SDS011;8426;48.496;9.098;2023-07-22T09:24:41;1.60;;;1.00;;
16624;SDS011;8426;48.496;9.098;2023-07-22T09:29:45;3.33;;;0.70;;
16624;SDS011;8426;48.496;9.098;2023-07-22T09:34:54;7.97;;;1.33;;
16624;SDS011;8426;48.496;9.098;2023-07-22T09:39:58;2.58;;;0.80;;
16624;SDS011;8426;48.496;9.098;2023-07-22T09:45:05;3.65;;;1.10;;
16624;SDS011;8426;48.496;9.098;2023-07-22T09:50:14;5.63;;;1.30;;
16624;SDS011;8426;48.496;9.098;2023-07-22T09:55:21;2.30;;;1.00;;
16624;SDS011;8426;48.496;9.098;2023-07-22T10:00:28;1.73;;;1.27;;
16624;SDS011;8426;48.496;9.098;2023-07-22T10:05:33;1.17;;;0.95;;
16624;SDS011;8426;48.496;9.098;2023-07-22T10:10:38;1.70;;;1.20;;
16624;SDS011;8426;48.496;9.098;2023-07-22T10:15:44;1.45;;;1.15;;
16624;SDS011;8426;48.496;9.098;2023-07-22T10:20:48;1.92;;;1.17;;
16624;SDS011;8426;48.496;9.098;2023-07-22T10:25:54;1.58;;;1.13;;
16624;SDS011;8426;48.496;9.098;2023-07-22T10:31:01;4.30;;;1.20;;
16624;SDS011;8426;48.496;9.098;2023-07-22T10:36:06;1.75;;;1.20;;
16624;SDS011;8426;48.496;9.098;2023-07-22T10:41:14;1.90;;;1.23;;
16624;SDS011;8426;48.496;9.098;2023-07-22T10:46:32;3.42;;;1.45;;
16624;SDS011;8426;48.496;9.098;2023-07-22T10:51:36;6.70;;;1.63;;
16624;SDS011;8426;48.496;9.098;2023-07-22T10:56:43;3.53;;;1.25;;
16624;SDS011;8426;48.496;9.098;2023-07-22T11:01:51;2.22;;;1.70;;
16624;SDS011;8426;48.496;9.098;2023-07-22T11:06:57;3.72;;;1.50;;
16624;SDS011;8426;48.496;9.098;2023-07-22T11:12:03;1.88;;;1.35;;
16624;SDS011;8426;48.496;9.098;2023-07-22T11:17:10;4.38;;;1.17;;
16624;SDS011;8426;48.496;9.098;2023-07-22T11:22:13;2.92;;;1.33;;
16624;SDS011;8426;48.496;9.098;2023-07-22T11:27:16;4.20;;;1.52;;
16624;SDS011;8426;48.496;9.098;2023-07-22T11:32:21;2.15;;;1.27;;
16624;SDS011;8426;48.496;9.098;2023-07-22T11:37:27;1.60;;;1.20;;
16624;SDS011;8426;48.496;9.098;2023-07-22T11:42:33;2.97;;;1.75;;
16624;SDS011;8426;48.496;9.098;2023-07-22T11:47:38;4.03;;;1.58;;
16624;SDS011;8426;48.496;9.098;2023-07-22T11:52:42;3.25;;;1.48;;
16624;SDS011;8426;48.496;9.098;2023-07-22T11:57:52;1.83;;;1.30;;
16624;SDS011;8426;48.496;9.098;2023-07-22T12:02:59;2.30;;;1.58;;
16624;SDS011;8426;48.496;9.098;2023-07-22T12:08:10;3.03;;;1.35;;
16624;SDS011;8426;48.496;9.098;2023-07-22T12:13:18;4.75;;;1.58;;
16624;SDS011;8426;48.496;9.098;2023-07-22T12:18:23;1.90;;;1.55;;
16624;SDS011;8426;48.496;9.098;2023-07-22T12:23:27;7.20;;;1.55;;
16624;SDS011;8426;48.496;9.098;2023-07-22T12:28:31;2.67;;;1.52;;
16624;SDS011;8426;48.496;9.098;2023-07-22T12:33:37;5.72;;;1.50;;
16624;SDS011;8426;48.496;9.098;2023-07-22T12:38:41;3.63;;;1.75;;
16624;SDS011;8426;48.496;9.098;2023-07-22T12:43:46;2.65;;;1.52;;
16624;SDS011;8426;48.496;9.098;2023-07-22T12:48:53;5.22;;;1.63;;
16624;SDS011;8426;48.496;9.098;2023-07-22T12:53:56;2.13;;;1.52;;
16624;SDS011;8426;48.496;9.098;2023-07-22T12:59:00;3.00;;;1.50;;
16624;SDS011;8426;48.496;9.098;2023-07-22T13:04:04;3.00;;;1.50;;
16624;SDS011;8426;48.496;9.098;2023-07-22T13:09:09;2.65;;;1.58;;
16624;SDS011;8426;48.496;9.098;2023-07-22T13:14:12;2.13;;;1.55;;
16624;SDS011;8426;48.496;9.098;2023-07-22T13:19:18;5.05;;;1.70;;
16624;SDS011;8426;48.496;9.098;2023-07-22T13:24:22;2.17;;;1.55;;
16624;SDS011;8426;48.496;9.098;2023-07-22T13:29:26;2.75;;;1.73;;
16624;SDS011;8426;48.496;9.098;2023-07-22T13:34:32;5.93;;;1.60;;
16624;SDS011;8426;48.496;9.098;2023-07-22T13:39:37;2.42;;;1.70;;
16624;SDS011;8426;48.496;9.098;2023-07-22T13:44:40;3.20;;;1.80;;
16624;SDS011;8426;48.496;9.098;2023-07-22T13:49:45;4.82;;;2.17;;
16624;SDS011;8426;48.496;9.098;2023-07-22T13:54:48;3.90;;;2.33;;
16624;SDS011;8426;48.496;9.098;2023-07-22T13:59:52;2.72;;;1.75;;
16624;SDS011;8426;48.496;9.098;2023-07-22T14:05:00;3.67;;;2.20;;
16624;SDS011;8426;48.496;9.098;2023-07-22T14:10:05;3.58;;;1.88;;
16624;SDS011;8426;48.496;9.098;2023-07-22T14:15:10;3.70;;;1.75;;
16624;SDS011;8426;48.496;9.098;2023-07-22T14:20:17;3.15;;;1.95;;
16624;SDS011;8426;48.496;9.098;2023-07-22T14:25:27;3.88;;;2.17;;
16624;SDS011;8426;48.496;9.098;2023-07-22T14:30:33;3.92;;;2.00;;
16624;SDS011;8426;48.496;9.098;2023-07-22T14:35:38;4.03;;;2.30;;
16624;SDS011;8426;48.496;9.098;2023-07-22T14:40:42;4.68;;;2.00;;
16624;SDS011;8426;48.496;9.098;2023-07-22T14:51:01;3.97;;;2.40;;
16624;SDS011;8426;48.496;9.098;2023-07-22T14:56:07;5.03;;;2.08;;
16624;SDS011;8426;48.496;9.098;2023-07-22T15:01:12;4.30;;;2.30;;
16624;SDS011;8426;48.496;9.098;2023-07-22T15:06:19;5.05;;;2.00;;
16624;SDS011;8426;48.496;9.098;2023-07-22T15:11:22;4.78;;;2.30;;
16624;SDS011;8426;48.496;9.098;2023-07-22T15:16:26;4.72;;;2.10;;
16624;SDS011;8426;48.496;9.098;2023-07-22T15:21:31;9.55;;;2.45;;
16624;SDS011;8426;48.496;9.098;2023-07-22T15:26:34;7.18;;;2.25;;
16624;SDS011;8426;48.496;9.098;2023-07-22T15:31:37;7.18;;;2.15;;
16624;SDS011;8426;48.496;9.098;2023-07-22T15:36:42;4.00;;;2.13;;
16624;SDS011;8426;48.496;9.098;2023-07-22T15:41:45;3.58;;;2.17;;
16624;SDS011;8426;48.496;9.098;2023-07-22T15:46:49;4.45;;;2.22;;
16624;SDS011;8426;48.496;9.098;2023-07-22T15:51:54;4.28;;;2.40;;
16624;SDS011;8426;48.496;9.098;2023-07-22T15:56:58;6.63;;;2.15;;
16624;SDS011;8426;48.496;9.098;2023-07-22T16:02:03;4.20;;;1.88;;
16624;SDS011;8426;48.496;9.098;2023-07-22T16:07:13;4.68;;;2.10;;
16624;SDS011;8426;48.496;9.098;2023-07-22T16:12:23;4.85;;;1.73;;
16624;SDS011;8426;48.496;9.098;2023-07-22T16:17:37;3.63;;;2.10;;
16624;SDS011;8426;48.496;9.098;2023-07-22T16:22:49;2.95;;;1.98;;
16624;SDS011;8426;48.496;9.098;2023-07-22T16:27:55;4.03;;;2.08;;
16624;SDS011;8426;48.496;9.098;2023-07-22T16:32:59;4.45;;;2.15;;
16624;SDS011;8426;48.496;9.098;2023-07-22T16:38:13;3.10;;;1.90;;
16624;SDS011;8426;48.496;9.098;2023-07-22T16:43:19;3.35;;;1.70;;
16624;SDS011;8426;48.496;9.098;2023-07-22T16:48:25;3.05;;;2.00;;
16624;SDS011;8426;48.496;9.098;2023-07-22T16:53:30;3.13;;;1.83;;
16624;SDS011;8426;48.496;9.098;2023-07-22T16:58:34;3.47;;;2.22;;
16624;SDS011;8426;48.496;9.098;2023-07-22T17:03:39;4.22;;;2.00;;
16624;SDS011;8426;48.496;9.098;2023-07-22T17:08:44;3.15;;;2.05;;
16624;SDS011;8426;48.496;9.098;2023-07-22T17:13:48;3.38;;;2.05;;
16624;SDS011;8426;48.496;9.098;2023-07-22T17:18:54;4.55;;;2.47;;
16624;SDS011;8426;48.496;9.098;2023-07-22T17:24:06;3.70;;;2.10;;
16624;SDS011;8426;48.496;9.098;2023-07-22T17:29:17;4.85;;;2.78;;
16624;SDS011;8426;48.496;9.098;2023-07-22T17:34:21;3.72;;;2.03;;
16624;SDS011;8426;48.496;9.098;2023-07-22T17:39:34;4.05;;;2.20;;
16624;SDS011;8426;48.496;9.098;2023-07-22T17:44:43;3.90;;;2.10;;
16624;SDS011;8426;48.496;9.098;2023-07-22T17:54:58;3.15;;;2.00;;
16624;SDS011;8426;48.496;9.098;2023-07-22T18:00:11;4.05;;;2.00;;
16624;SDS011;8426;48.496;9.098;2023-07-22T18:05:17;4.55;;;2.00;;
16624;SDS011;8426;48.496;9.098;2023-07-22T18:10:25;3.28;;;1.75;;
16624;SDS011;8426;48.496;9.098;2023-07-22T18:15:29;2.45;;;1.80;;
16624;SDS011;8426;48.496;9.098;2023-07-22T18:20:34;3.90;;;1.88;;
16624;SDS011;8426;48.496;9.098;2023-07-22T18:25:50;4.70;;;1.92;;
16624;SDS011;8426;48.496;9.098;2023-07-22T18:30:55;3.20;;;1.63;;
16624;SDS011;8426;48.496;9.098;2023-07-22T18:35:59;3.08;;;1.73;;
16624;SDS011;8426;48.496;9.098;2023-07-22T18:41:15;3.72;;;1.75;;
16624;SDS011;8426;48.496;9.098;2023-07-22T18:46:20;4.78;;;1.88;;
16624;SDS011;8426;48.496;9.098;2023-07-22T18:56:48;5.82;;;1.73;;
16624;SDS011;8426;48.496;9.098;2023-07-22T19:01:57;3.13;;;1.58;;
16624;SDS011;8426;48.496;9.098;2023-07-22T19:07:02;2.13;;;1.48;;
16624;SDS011;8426;48.496;9.098;2023-07-22T19:12:09;4.05;;;1.60;;
16624;SDS011;8426;48.496;9.098;2023-07-22T19:17:13;2.97;;;1.48;;
16624;SDS011;8426;48.496;9.098;2023-07-22T19:22:20;5.55;;;1.50;;
16624;SDS011;8426;48.496;9.098;2023-07-22T19:27:27;4.88;;;1.40;;
16624;SDS011;8426;48.496;9.098;2023-07-22T19:32:33;2.80;;;1.58;;
16624;SDS011;8426;48.496;9.098;2023-07-22T19:37:37;2.45;;;1.55;;
16624;SDS011;8426;48.496;9.098;2023-07-22T19:42:44;5.80;;;1.48;;
16624;SDS011;8426;48.496;9.098;2023-07-22T19:47:55;3.50;;;2.00;;
16624;SDS011;8426;48.496;9.098;2023-07-22T19:52:59;3.67;;;1.70;;
16624;SDS011;8426;48.496;9.098;2023-07-22T19:58:10;6.32;;;2.20;;
16624;SDS011;8426;48.496;9.098;2023-07-22T20:03:14;3.65;;;1.88;;
16624;SDS011;8426;48.496;9.098;2023-07-22T20:08:18;5.03;;;1.80;;
16624;SDS011;8426;48.496;9.098;2023-07-22T20:13:24;3.13;;;1.92;;
16624;SDS011;8426;48.496;9.098;2023-07-22T20:18:28;9.23;;;2.38;;
16624;SDS011;8426;48.496;9.098;2023-07-22T20:23:32;4.07;;;2.20;;
16624;SDS011;8426;48.496;9.098;2023-07-22T20:28:37;4.05;;;2.20;;
16624;SDS011;8426;48.496;9.098;2023-07-22T20:33:46;3.10;;;1.80;;
16624;SDS011;8426;48.496;9.098;2023-07-22T20:38:50;2.63;;;1.70;;
16624;SDS011;8426;48.496;9.098;2023-07-22T20:49:24;7.32;;;2.05;;
16624;SDS011;8426;48.496;9.098;2023-07-22T20:54:33;5.20;;;2.05;;
16624;SDS011;8426;48.496;9.098;2023-07-22T20:59:39;3.33;;;1.95;;
16624;SDS011;8426;48.496;9.098;2023-07-22T21:04:43;4.45;;;2.13;;
16624;SDS011;8426;48.496;9.098;2023-07-22T21:09:47;7.90;;;2.25;;
16624;SDS011;8426;48.496;9.098;2023-07-22T21:15:00;7.45;;;1.75;;
16624;SDS011;8426;48.496;9.098;2023-07-22T21:25:11;2.97;;;1.50;;
16624;SDS011;8426;48.496;9.098;2023-07-22T21:30:17;3.08;;;1.80;;
16624;SDS011;8426;48.496;9.098;2023-07-22T21:35:22;3.30;;;1.60;;
16624;SDS011;8426;48.496;9.098;2023-07-22T21:40:26;4.38;;;2.38;;
16624;SDS011;8426;48.496;9.098;2023-07-22T21:45:35;2.65;;;1.50;;
16624;SDS011;8426;48.496;9.098;2023-07-22T21:50:40;4.18;;;1.65;;
16624;SDS011;8426;48.496;9.098;2023-07-22T21:55:44;2.72;;;1.40;;
16624;SDS011;8426;48.496;9.098;2023-07-22T22:00:50;3.03;;;1.73;;
16624;SDS011;8426;48.496;9.098;2023-07-22T22:05:56;3.38;;;1.45;;
16624;SDS011;8426;48.496;9.098;2023-07-22T22:11:02;2.80;;;1.50;;
16624;SDS011;8426;48.496;9.098;2023-07-22T22:16:08;3.17;;;1.40;;
16624;SDS011;8426;48.496;9.098;2023-07-22T22:21:13;5.07;;;1.70;;
16624;SDS011;8426;48.496;9.098;2023-07-22T22:26:17;3.05;;;1.63;;
16624;SDS011;8426;48.496;9.098;2023-07-22T22:31:25;3.72;;;1.60;;
16624;SDS011;8426;48.496;9.098;2023-07-22T22:36:28;4.00;;;1.30;;
16624;SDS011;8426;48.496;9.098;2023-07-22T22:41:33;1.45;;;1.10;;
16624;SDS011;8426;48.496;9.098;2023-07-22T22:46:41;2.88;;;1.35;;
16624;SDS011;8426;48.496;9.098;2023-07-22T22:51:46;4.53;;;1.67;;
16624;SDS011;8426;48.496;9.098;2023-07-22T22:56:51;5.03;;;1.35;;
16624;SDS011;8426;48.496;9.098;2023-07-22T23:01:57;2.70;;;1.25;;
16624;SDS011;8426;48.496;9.098;2023-07-22T23:07:02;2.92;;;1.17;;
16624;SDS011;8426;48.496;9.098;2023-07-22T23:12:06;4.38;;;1.67;;
16624;SDS011;8426;48.496;9.098;2023-07-22T23:17:11;3.40;;;1.60;;
16624;SDS011;8426;48.496;9.098;2023-07-22T23:22:15;2.47;;;1.15;;
16624;SDS011;8426;48.496;9.098;2023-07-22T23:27:18;2.30;;;1.30;;
16624;SDS011;8426;48.496;9.098;2023-07-22T23:32:24;2.67;;;1.58;;
16624;SDS011;8426;48.496;9.098;2023-07-22T23:37:28;3.78;;;1.50;;
16624;SDS011;8426;48.496;9.098;2023-07-22T23:42:33;2.95;;;1.85;;
16624;SDS011;8426;48.496;9.098;2023-07-22T23:47:38;2.33;;;1.40;;
16624;SDS011;8426;48.496;9.098;2023-07-22T23:52:44;2.35;;;1.20;;
16624;SDS011;8426;48.496;9.098;2023-07-22T23:57:48;2.30;;;1.33;;
